This is the latest recevied weather packets stored in our database for station/object KE2HEH. If no packets are shown the sender has not sent any weather packets the latest 10 day(s).
| Time | Temp. | Humidity | Pressure | Rain* | Wind** | Luminosity | Snow |
|---|---|---|---|---|---|---|---|
| 1777839080 | 15° C | 30% | 1011.1 hPa | 0 mm | - | 415 W/m² | - |
| 1777838776 | 15° C | 31% | 1011.1 hPa | 0 mm | - | 413 W/m² | - |
| 1777838472 | 14.44° C | 31% | 1011.2 hPa | 0 mm | - | 415 W/m² | - |
| 1777838169 | 14.44° C | 31% | 1011.3 hPa | 0 mm | - | 431 W/m² | - |
| 1777837866 | 15° C | 31% | 1011.2 hPa | 0 mm | - | 98 W/m² | - |
| 1777837563 | 14.44° C | 32% | 1011.3 hPa | 0 mm | - | 479 W/m² | - |
| 1777837258 | 15° C | 31% | 1011.3 hPa | 0 mm | - | 459 W/m² | - |
| 1777836955 | 15° C | 31% | 1011.2 hPa | 0 mm | - | 500 W/m² | - |
| 1777836650 | 14.44° C | 33% | 1011.6 hPa | 0 mm | - | 496 W/m² | - |
| 1777836347 | 13.89° C | 33% | 1011.3 hPa | 0 mm | - | 484 W/m² | - |
| 1777836043 | 13.89° C | 34% | 1011.5 hPa | 0 mm | - | 501 W/m² | - |
| 1777835740 | 14.44° C | 34% | 1011.7 hPa | 0 mm | - | 541 W/m² | - |
| 1777835436 | 13.89° C | 35% | 1011.5 hPa | 0 mm | - | 570 W/m² | - |
| 1777835133 | 13.89° C | 35% | 1011.6 hPa | 0 mm | - | 573 W/m² | - |
| 1777834831 | 13.89° C | 34% | 1011.6 hPa | 0 mm | - | 446 W/m² | - |
| 1777834527 | 13.89° C | 34% | 1011.8 hPa | 0 mm | - | 642 W/m² | - |
| 1777834227 | 13.89° C | 34% | 1011.7 hPa | 0 mm | - | 606 W/m² | - |
| 1777833923 | 13.89° C | 34% | 1012 hPa | 0 mm | - | 457 W/m² | - |
| 1777833620 | 13.89° C | 35% | 1011.8 hPa | 0 mm | - | 601 W/m² | - |
| 1777833316 | 13.89° C | 36% | 1011.9 hPa | 0 mm | - | 598 W/m² | - |
| 1777833013 | 13.33° C | 35% | 1011.9 hPa | 0 mm | - | 619 W/m² | - |
| 1777832712 | 13.33° C | 36% | 1011.8 hPa | 0 mm | - | 667 W/m² | - |
| 1777832409 | 13.89° C | 35% | 1011.9 hPa | 0 mm | - | 653 W/m² | - |
| 1777832106 | 13.89° C | 36% | 1011.8 hPa | 0 mm | - | 212 W/m² | - |
| 1777831803 | 12.78° C | 36% | 1011.8 hPa | 0 mm | - | 704 W/m² | - |
* Rain latest hour (hover to see other rain measurements)
** Current wind speed in m/s (hover to see current wind gust speed)